Bauru, Brazil
Current Conditions -  °F | °C
As of 2:00 PM on Friday 28 Nov 2014 (Local Time) from SBBU Reporting Station
Scattered Clouds Scattered Clouds  
Wind Chill: 82°   Ceiling: Unl
Heat Index: 87°   Visibility: 6mi
Dew Point: 72°   Wind: 10mph
Humidity: 70%   Direction: 130°SE
Pressure: 30"   Gusts: NA
Location:  22.33°S, 49.08°W
Report Text: SBBU 281600Z 13009KT 9999 SCT030 28/22 Q1016
Loading
Personal Weather Stations






























Interactive Weather Map New forecast layout! Learn more

10-Day Weather Forecast

Advertisements
Track Severe Weather on mobile